M/V Manukai — WRGD — position and weather

sailwx.info

Track history (hours):
 
Tides and Currents Weather Stations Pressure Air Temp Water Temp Dewpoint Dewpoint Depression Visibility Wind Speed Wind Dir Waves Ship Positions

M/V Manukai

Owner: Matson Navigation Company, Inc., Oakland, CA. More information available from US FCC via Universal Licensing System and Coast Guard Vessel Documentation Center.

Last reported at 2015-Aug-30 00:00 UTC. Time now 2015-Sep-02 08:33 UTC.
Position N 24°42' W 149°54'.

Type: Ship (hazmat cat A). MMSI: 369296000.

Wind from 060 at 20 knots

Waves 1.5 meters (5 feet), 2 second period

Barometer 1015.0 mb
Air temperature 27.0 ° C
Visibility: greater than 10.8 NM
Dewpoint 22.9 ° C
Water temperature 27.0 ° C

Date/timePositionNaut miles runAvg speedWind from/ knotsBaromVisibWave heightAir tempDewpointWater temp
2015-Aug-30 00:00N 24°42' W 149°54'25921.6 060 / 201015.010.8 1.527.022.927.0
2015-Aug-29 12:00N 26°24' W 145°30'26422.0 080 / 121016.510.8 0.524.221.226.1
2015-Aug-29 00:00N 28°00' W 140°54'86621.8 080 / 31016.810.8 27.121.525.7
2015-Aug-27 08:21N 32°14' W 124°57'15920.1
2015-Aug-27 00:28N 32°40' W 121°52'1819.8
2015-Aug-26 23:33N 32°43' W 121°31'4019.7
2015-Aug-26 21:33N 32°48' W 120°44'2019.6
2015-Aug-26 20:33N 32°50' W 120°21'2219.2
2015-Aug-26 19:25N 32°53' W 119°55'1819.8
2015-Aug-26 18:32N 32°55' W 119°34'1818.6
2015-Aug-26 17:33N 32°59' W 119°13'2019.7
2015-Aug-26 16:34N 33°14' W 118°58'2116.0
2015-Aug-26 15:13N 33°29' W 118°40'812.4
2015-Aug-26 14:34N 33°32' W 118°31'1212.0
2015-Aug-26 13:34N 33°35' W 118°17'1010.0
2015-Aug-26 12:34N 33°44' W 118°12'2 2.4
2015-Aug-26 11:34N 33°46' W 118°13'0 0.0
2015-Aug-26 10:34N 33°46' W 118°13'0 0.0
2015-Aug-26 09:33N 33°46' W 118°13'0 0.1
2015-Aug-26 08:33N 33°46' W 118°13'0 0.1
2015-Aug-26 07:33N 33°46' W 118°13'0 0.0
2015-Aug-26 06:33N 33°46' W 118°13'0 0.0
2015-Aug-26 05:33N 33°46' W 118°13'0 0.0
2015-Aug-26 04:33N 33°46' W 118°13'0 0.0
2015-Aug-26 03:33N 33°46' W 118°13'0 0.1
2015-Aug-26 02:33N 33°46' W 118°13'0 0.0
2015-Aug-26 01:33N 33°46' W 118°13'0 0.0
2015-Aug-26 00:33N 33°46' W 118°13'0 0.0
2015-Aug-25 23:33N 33°46' W 118°13'0 0.1
2015-Aug-25 22:33N 33°46' W 118°13'0 0.0
2015-Aug-25 21:33N 33°46' W 118°13'0 0.0
2015-Aug-25 20:33N 33°46' W 118°13'0 0.0
2015-Aug-25 19:33N 33°46' W 118°13'0 0.0
2015-Aug-25 18:33N 33°46' W 118°13'0 0.0
2015-Aug-25 17:33N 33°46' W 118°13'0 0.0
2015-Aug-25 16:33N 33°46' W 118°13'0 0.1
2015-Aug-25 15:33N 33°46' W 118°13'0 0.1
2015-Aug-25 14:33N 33°46' W 118°13'0 0.0
2015-Aug-25 13:33N 33°46' W 118°13'0 0.0
2015-Aug-25 12:33N 33°46' W 118°13'0 0.0
2015-Aug-25 11:33N 33°46' W 118°13'0 0.0
2015-Aug-25 10:33N 33°46' W 118°13'0 0.0
2015-Aug-25 09:33N 33°46' W 118°13'0 0.0
2015-Aug-25 08:33N 33°46' W 118°13'0 0.0
2015-Aug-25 07:33N 33°46' W 118°13'0 0.0
2015-Aug-25 06:33N 33°46' W 118°13'0 0.0
2015-Aug-25 05:33N 33°46' W 118°13'0 0.0
2015-Aug-25 04:33N 33°46' W 118°13'0 0.1
2015-Aug-25 03:33N 33°46' W 118°13'0 0.1
2015-Aug-25 02:33N 33°46' W 118°13'0 0.0
2015-Aug-25 01:33N 33°46' W 118°13'0 0.0
2015-Aug-25 00:33N 33°46' W 118°13'0 0.0
2015-Aug-24 23:33N 33°46' W 118°13'0 0.0
2015-Aug-24 22:33N 33°46' W 118°13'0 0.0
2015-Aug-24 21:33N 33°46' W 118°13'0 0.0
2015-Aug-24 20:33N 33°46' W 118°13'0 0.0
2015-Aug-24 19:33N 33°46' W 118°13'0 0.0
2015-Aug-24 18:33N 33°46' W 118°13'0 0.0
2015-Aug-24 17:34N 33°46' W 118°13'0 0.0
2015-Aug-24 16:33N 33°46' W 118°13'0 0.1
2015-Aug-24 15:34N 33°46' W 118°13'0 0.0
2015-Aug-24 14:33N 33°46' W 118°13'0 0.0
2015-Aug-24 13:34N 33°46' W 118°13'0 0.2
2015-Aug-24 12:33N 33°46' W 118°13'6 6.3
2015-Aug-24 11:33N 33°40' W 118°11'7 6.6
2015-Aug-24 10:33N 33°36' W 118°18'1110.2
2015-Aug-24 09:30N 33°37' W 118°31'9 9.6
2015-Aug-24 08:33N 33°38' W 118°41'1616.0
2015-Aug-24 07:33N 33°39' W 119°01'2019.6
2015-Aug-24 06:33N 33°41' W 119°24'2019.7
2015-Aug-24 05:33N 33°42' W 119°48'2020.2
2015-Aug-24 04:33N 33°44' W 120°12'2020.0
2015-Aug-24 03:33N 33°49' W 120°35'2020.5
2015-Aug-24 02:33N 33°55' W 120°58'2120.6
2015-Aug-24 01:33N 34°02' W 121°22'2220.6
2015-Aug-24 00:28N 34°08' W 121°48'1716.3
2015-Aug-23 23:27N 34°13' W 122°07'1 0.9
2015-Aug-23 22:33N 34°13' W 122°08'2219.7
2015-Aug-23 21:25N 34°20' W 122°34'1919.8
2015-Aug-23 20:27N 34°26' W 122°56'1919.8
2015-Aug-23 19:31N 34°32' W 123°18'39620.3
2015-Aug-23 00:00N 37°48' W 130°24'108922.7 020 / 191018.010.8 1.526.020.220.4
2015-Aug-21 00:00N 45°54' W 152°12'   130 / 71032.510.8 19.217.018.3
Track history (hours):
 
Tides and Currents Weather Stations Pressure Air Temp Water Temp Dewpoint Dewpoint Depression Visibility Wind Speed Wind Dir Waves Ship Positions

M/V Manukai

Owner: Matson Navigation Company, Inc., Oakland, CA. More information available from US FCC via Universal Licensing System and Coast Guard Vessel Documentation Center.

Last reported at 2015-Aug-30 00:00 UTC. Time now 2015-Sep-02 08:33 UTC.
Position N 24°42' W 149°54'.

Type: Ship (hazmat cat A). MMSI: 369296000.

Wind from 060 at 20 knots

Waves 1.5 meters (5 feet), 2 second period

Barometer 1015.0 mb
Air temperature 27.0 ° C
Visibility: greater than 10.8 NM
Dewpoint 22.9 ° C
Water temperature 27.0 ° C

Date/timePositionNaut miles runAvg speedWind from/ knotsBaromVisibWave heightAir tempDewpointWater temp
2015-Aug-30 00:00N 24°42' W 149°54'25921.6 060 / 201015.010.8 1.527.022.927.0
2015-Aug-29 12:00N 26°24' W 145°30'26422.0 080 / 121016.510.8 0.524.221.226.1
2015-Aug-29 00:00N 28°00' W 140°54'86621.8 080 / 31016.810.8 27.121.525.7
2015-Aug-27 08:21N 32°14' W 124°57'15920.1
2015-Aug-27 00:28N 32°40' W 121°52'1819.8
2015-Aug-26 23:33N 32°43' W 121°31'4019.7
2015-Aug-26 21:33N 32°48' W 120°44'2019.6
2015-Aug-26 20:33N 32°50' W 120°21'2219.2
2015-Aug-26 19:25N 32°53' W 119°55'1819.8
2015-Aug-26 18:32N 32°55' W 119°34'1818.6
2015-Aug-26 17:33N 32°59' W 119°13'2019.7
2015-Aug-26 16:34N 33°14' W 118°58'2116.0
2015-Aug-26 15:13N 33°29' W 118°40'812.4
2015-Aug-26 14:34N 33°32' W 118°31'1212.0
2015-Aug-26 13:34N 33°35' W 118°17'1010.0
2015-Aug-26 12:34N 33°44' W 118°12'2 2.4
2015-Aug-26 11:34N 33°46' W 118°13'0 0.0
2015-Aug-26 10:34N 33°46' W 118°13'0 0.0
2015-Aug-26 09:33N 33°46' W 118°13'0 0.1
2015-Aug-26 08:33N 33°46' W 118°13'0 0.1
2015-Aug-26 07:33N 33°46' W 118°13'0 0.0
2015-Aug-26 06:33N 33°46' W 118°13'0 0.0
2015-Aug-26 05:33N 33°46' W 118°13'0 0.0
2015-Aug-26 04:33N 33°46' W 118°13'0 0.0
2015-Aug-26 03:33N 33°46' W 118°13'0 0.1
2015-Aug-26 02:33N 33°46' W 118°13'0 0.0
2015-Aug-26 01:33N 33°46' W 118°13'0 0.0
2015-Aug-26 00:33N 33°46' W 118°13'0 0.0
2015-Aug-25 23:33N 33°46' W 118°13'0 0.1
2015-Aug-25 22:33N 33°46' W 118°13'0 0.0
2015-Aug-25 21:33N 33°46' W 118°13'0 0.0
2015-Aug-25 20:33N 33°46' W 118°13'0 0.0
2015-Aug-25 19:33N 33°46' W 118°13'0 0.0
2015-Aug-25 18:33N 33°46' W 118°13'0 0.0
2015-Aug-25 17:33N 33°46' W 118°13'0 0.0
2015-Aug-25 16:33N 33°46' W 118°13'0 0.1
2015-Aug-25 15:33N 33°46' W 118°13'0 0.1
2015-Aug-25 14:33N 33°46' W 118°13'0 0.0
2015-Aug-25 13:33N 33°46' W 118°13'0 0.0
2015-Aug-25 12:33N 33°46' W 118°13'0 0.0
2015-Aug-25 11:33N 33°46' W 118°13'0 0.0
2015-Aug-25 10:33N 33°46' W 118°13'0 0.0
2015-Aug-25 09:33N 33°46' W 118°13'0 0.0
2015-Aug-25 08:33N 33°46' W 118°13'0 0.0
2015-Aug-25 07:33N 33°46' W 118°13'0 0.0
2015-Aug-25 06:33N 33°46' W 118°13'0 0.0
2015-Aug-25 05:33N 33°46' W 118°13'0 0.0
2015-Aug-25 04:33N 33°46' W 118°13'0 0.1
2015-Aug-25 03:33N 33°46' W 118°13'0 0.1
2015-Aug-25 02:33N 33°46' W 118°13'0 0.0
2015-Aug-25 01:33N 33°46' W 118°13'0 0.0
2015-Aug-25 00:33N 33°46' W 118°13'0 0.0
2015-Aug-24 23:33N 33°46' W 118°13'0 0.0
2015-Aug-24 22:33N 33°46' W 118°13'0 0.0
2015-Aug-24 21:33N 33°46' W 118°13'0 0.0
2015-Aug-24 20:33N 33°46' W 118°13'0 0.0
2015-Aug-24 19:33N 33°46' W 118°13'0 0.0
2015-Aug-24 18:33N 33°46' W 118°13'0 0.0
2015-Aug-24 17:34N 33°46' W 118°13'0 0.0
2015-Aug-24 16:33N 33°46' W 118°13'0 0.1
2015-Aug-24 15:34N 33°46' W 118°13'0 0.0
2015-Aug-24 14:33N 33°46' W 118°13'0 0.0
2015-Aug-24 13:34N 33°46' W 118°13'0 0.2
2015-Aug-24 12:33N 33°46' W 118°13'6 6.3
2015-Aug-24 11:33N 33°40' W 118°11'7 6.6
2015-Aug-24 10:33N 33°36' W 118°18'1110.2
2015-Aug-24 09:30N 33°37' W 118°31'9 9.6
2015-Aug-24 08:33N 33°38' W 118°41'1616.0
2015-Aug-24 07:33N 33°39' W 119°01'2019.6
2015-Aug-24 06:33N 33°41' W 119°24'2019.7
2015-Aug-24 05:33N 33°42' W 119°48'2020.2
2015-Aug-24 04:33N 33°44' W 120°12'2020.0
2015-Aug-24 03:33N 33°49' W 120°35'2020.5
2015-Aug-24 02:33N 33°55' W 120°58'2120.6
2015-Aug-24 01:33N 34°02' W 121°22'2220.6
2015-Aug-24 00:28N 34°08' W 121°48'1716.3
2015-Aug-23 23:27N 34°13' W 122°07'1 0.9
2015-Aug-23 22:33N 34°13' W 122°08'2219.7
2015-Aug-23 21:25N 34°20' W 122°34'1919.8
2015-Aug-23 20:27N 34°26' W 122°56'1919.8
2015-Aug-23 19:31N 34°32' W 123°18'39620.3
2015-Aug-23 00:00N 37°48' W 130°24'108922.7 020 / 191018.010.8 1.526.020.220.4
2015-Aug-21 00:00N 45°54' W 152°12'   130 / 71032.510.8 19.217.018.3

Dump ship's entire track history